Time;durP1;ratioP1;P1;durP2;ratioP2;P2;SDS_P1;SDS_P2;PMS_P1;PMS_P2;Temp;Humidity;BMP_temperature;BMP_pressure;BME280_temperature;BME280_humidity;BME280_pressure;Samples;Min_cycle;Max_cycle;Signal;HPM_P1;HPM_P2
2021/05/05 00:01:04;;;;;;;0.80;0.37;;;7.50;99.90;;;;;;5082991;28;20461;-58
2021/05/05 00:03:30;;;;;;;1.07;0.50;;;7.50;99.90;;;;;;5069856;28;20036;-58
2021/05/05 00:05:58;;;;;;;1.07;0.30;;;7.50;99.90;;;;;;5069083;28;20702;-58
2021/05/05 00:08:24;;;;;;;4.17;0.57;;;7.50;99.90;;;;;;5073562;28;20040;-58
2021/05/05 00:10:51;;;;;;;2.80;0.40;;;7.50;99.90;;;;;;5069529;28;20040;-59
2021/05/05 00:13:18;;;;;;;1.07;0.50;;;7.50;99.90;;;;;;5070419;28;20045;-59
2021/05/05 00:15:44;;;;;;;0.93;0.40;;;7.50;99.90;;;;;;5070437;28;20025;-59
2021/05/05 00:18:12;;;;;;;1.67;0.57;;;7.60;99.90;;;;;;5070269;28;20028;-59
2021/05/05 00:20:39;;;;;;;2.73;0.70;;;7.50;99.90;;;;;;5068009;28;20149;-59
2021/05/05 00:23:04;;;;;;;1.83;0.57;;;7.50;99.90;;;;;;5070077;28;20051;-59
2021/05/05 00:25:30;;;;;;;6.93;0.80;;;7.50;99.90;;;;;;5069909;28;20369;-58
2021/05/05 00:27:56;;;;;;;3.33;0.80;;;7.50;99.90;;;;;;5070786;28;20051;-58
2021/05/05 00:30:25;;;;;;;3.33;0.50;;;7.50;99.90;;;;;;5070811;28;20065;-59
2021/05/05 00:32:53;;;;;;;0.70;0.70;;;7.50;99.90;;;;;;5069145;28;20040;-58
2021/05/05 00:35:19;;;;;;;4.47;0.60;;;7.50;99.90;;;;;;5068648;28;20036;-58
2021/05/05 00:37:47;;;;;;;0.90;0.40;;;7.50;99.90;;;;;;5068496;28;20035;-58
2021/05/05 00:40:13;;;;;;;1.80;0.40;;;7.50;99.90;;;;;;5070291;28;20040;-58
2021/05/05 00:42:39;;;;;;;1.30;0.37;;;7.50;99.90;;;;;;5068090;28;20036;-58
2021/05/05 00:45:13;;;;;;;1.70;0.60;;;7.50;99.90;;;;;;5069328;28;20036;-58
2021/05/05 00:47:41;;;;;;;0.57;0.50;;;7.50;99.90;;;;;;5068057;28;20032;-59
2021/05/05 00:50:13;;;;;;;4.97;0.67;;;7.40;99.90;;;;;;5069338;28;20083;-58
2021/05/05 00:52:44;;;;;;;1.58;0.77;;;7.40;99.90;;;;;;5069179;28;20115;-59
2021/05/05 00:55:10;;;;;;;5.17;0.57;;;7.40;99.90;;;;;;5084171;28;21875;-59
2021/05/05 00:57:41;;;;;;;2.10;0.57;;;7.40;99.90;;;;;;5068095;28;20028;-58
2021/05/05 01:00:10;;;;;;;2.03;0.57;;;7.40;99.90;;;;;;5066528;28;20115;-58
2021/05/05 01:02:37;;;;;;;1.60;0.43;;;7.30;99.90;;;;;;5067711;28;20047;-59
2021/05/05 01:05:07;;;;;;;2.00;0.90;;;7.30;99.90;;;;;;5066113;28;20039;-59
2021/05/05 01:07:34;;;;;;;1.40;0.63;;;7.30;99.90;;;;;;5068864;28;20376;-59
2021/05/05 01:10:02;;;;;;;1.20;0.70;;;7.20;99.90;;;;;;5083228;28;20028;-59
2021/05/05 01:12:28;;;;;;;1.23;0.60;;;7.20;99.90;;;;;;5067893;28;20040;-58
2021/05/05 01:14:54;;;;;;;1.97;1.00;;;7.30;99.90;;;;;;5069045;28;20039;-59
2021/05/05 01:17:20;;;;;;;1.23;0.60;;;7.30;99.90;;;;;;5068553;28;20031;-59
2021/05/05 01:19:47;;;;;;;2.87;0.60;;;7.40;99.90;;;;;;5068869;28;20380;-59
2021/05/05 01:22:13;;;;;;;0.73;0.40;;;7.40;99.90;;;;;;5066654;28;20405;-58
2021/05/05 01:24:39;;;;;;;3.33;0.60;;;7.40;99.90;;;;;;5065249;28;20032;-59
2021/05/05 01:27:06;;;;;;;1.07;0.40;;;7.40;99.90;;;;;;5068167;28;20033;-59
2021/05/05 01:29:33;;;;;;;3.40;0.30;;;7.40;99.90;;;;;;5068355;28;20887;-59
2021/05/05 01:31:58;;;;;;;1.63;0.33;;;7.40;99.90;;;;;;5067110;28;20049;-59
2021/05/05 01:34:24;;;;;;;3.10;1.00;;;7.30;99.90;;;;;;5068742;28;20028;-58
2021/05/05 01:36:50;;;;;;;4.37;0.57;;;7.30;99.90;;;;;;5065823;28;20044;-59
2021/05/05 01:39:18;;;;;;;8.00;1.27;;;7.30;99.90;;;;;;5067310;28;20036;-59
2021/05/05 01:41:45;;;;;;;1.17;0.60;;;7.30;99.90;;;;;;5067761;28;20066;-59
2021/05/05 01:44:15;;;;;;;2.50;0.50;;;7.30;99.90;;;;;;5068966;28;20341;-59
2021/05/05 01:46:48;;;;;;;3.73;1.23;;;7.30;99.90;;;;;;5068193;28;20062;-59
2021/05/05 01:49:26;;;;;;;0.50;0.40;;;7.30;99.90;;;;;;5066942;28;20044;-59
2021/05/05 01:52:02;;;;;;;2.13;0.40;;;7.20;99.90;;;;;;5069352;28;20036;-59
2021/05/05 01:54:34;;;;;;;0.80;0.20;;;7.20;99.90;;;;;;5068065;28;20074;-58
2021/05/05 01:57:23;;;;;;;1.85;1.05;;;7.20;99.90;;;;;;5067939;28;20175;-59
2021/05/05 01:59:50;;;;;;;3.97;1.43;;;7.20;99.90;;;;;;5069477;28;20070;-59
2021/05/05 02:02:15;;;;;;;2.63;1.33;;;7.20;99.90;;;;;;5068064;28;21227;-59
2021/05/05 02:04:43;;;;;;;5.73;1.30;;;7.10;99.90;;;;;;5066019;28;20073;-58
2021/05/05 02:07:12;;;;;;;4.20;0.40;;;7.10;99.90;;;;;;5052277;28;20067;-58
2021/05/05 02:09:38;;;;;;;4.43;0.70;;;7.00;99.90;;;;;;5064329;28;20068;-59
2021/05/05 02:12:04;;;;;;;1.70;1.20;;;6.90;99.90;;;;;;5068595;28;20490;-59
2021/05/05 02:14:30;;;;;;;1.47;0.80;;;6.80;99.90;;;;;;5084013;28;20028;-58
2021/05/05 02:17:00;;;;;;;4.53;0.73;;;6.80;99.90;;;;;;5065571;28;20043;-59
2021/05/05 02:19:26;;;;;;;2.20;1.03;;;6.80;99.90;;;;;;5067697;28;20054;-59
2021/05/05 02:21:54;;;;;;;2.83;0.93;;;6.80;99.90;;;;;;5067401;28;20041;-59
2021/05/05 02:24:21;;;;;;;4.47;2.00;;;6.80;99.90;;;;;;5066756;28;20044;-59
2021/05/05 02:26:47;;;;;;;6.27;1.00;;;6.70;99.90;;;;;;5065453;28;20032;-59
2021/05/05 02:29:15;;;;;;;2.57;0.80;;;6.70;99.90;;;;;;5065961;28;20067;-59
2021/05/05 02:31:43;;;;;;;3.67;0.83;;;6.70;99.90;;;;;;5066835;28;20524;-59
2021/05/05 02:34:10;;;;;;;6.93;1.10;;;6.60;99.90;;;;;;5066017;28;20032;-58
2021/05/05 02:36:40;;;;;;;3.47;0.80;;;6.70;99.90;;;;;;5065718;28;20024;-61
2021/05/05 02:39:10;;;;;;;3.43;1.10;;;6.70;99.90;;;;;;5065855;28;20052;-60
2021/05/05 02:41:39;;;;;;;1.23;0.87;;;6.70;99.90;;;;;;5066251;28;20028;-59
2021/05/05 02:44:06;;;;;;;7.03;1.67;;;6.70;99.90;;;;;;5067446;28;20032;-60
2021/05/05 02:46:31;;;;;;;3.40;1.60;;;6.70;99.90;;;;;;5067827;28;20167;-58
2021/05/05 02:49:00;;;;;;;4.77;1.30;;;6.70;99.90;;;;;;5067303;28;20088;-60
2021/05/05 02:51:26;;;;;;;9.33;1.73;;;6.70;99.90;;;;;;5066137;28;20345;-59
2021/05/05 02:53:51;;;;;;;3.07;1.30;;;6.70;99.90;;;;;;5067977;28;20020;-59
2021/05/05 02:56:17;;;;;;;7.33;1.37;;;6.70;99.90;;;;;;5068254;28;20039;-59
2021/05/05 02:58:43;;;;;;;5.27;1.73;;;6.70;99.90;;;;;;5068847;28;20043;-59
2021/05/05 03:01:09;;;;;;;3.97;1.20;;;6.80;99.90;;;;;;5070689;28;20406;-59
2021/05/05 03:03:37;;;;;;;2.00;1.50;;;6.80;99.90;;;;;;5071173;28;20112;-59
2021/05/05 03:06:02;;;;;;;1.60;0.93;;;6.80;99.90;;;;;;5070852;28;20040;-59
2021/05/05 03:08:31;;;;;;;4.17;1.30;;;6.80;99.90;;;;;;5070140;28;20066;-59
2021/05/05 03:10:57;;;;;;;4.53;1.20;;;6.80;99.90;;;;;;5070989;28;20024;-59
2021/05/05 03:13:22;;;;;;;2.87;0.70;;;6.80;99.90;;;;;;5069984;28;20025;-59
2021/05/05 03:15:48;;;;;;;7.77;1.47;;;6.80;99.90;;;;;;5069392;28;20039;-59
2021/05/05 03:18:14;;;;;;;4.47;1.37;;;6.90;99.90;;;;;;5071511;28;20069;-59
2021/05/05 03:20:39;;;;;;;8.33;1.33;;;6.90;99.90;;;;;;5069018;28;20415;-60
2021/05/05 03:23:05;;;;;;;2.70;0.93;;;6.90;99.90;;;;;;5070945;28;20099;-58
2021/05/05 03:25:31;;;;;;;3.27;1.20;;;7.00;99.90;;;;;;5069669;28;20040;-59
2021/05/05 03:27:56;;;;;;;12.53;1.77;;;7.00;99.90;;;;;;5069216;28;20032;-59
2021/05/05 03:30:23;;;;;;;4.83;1.60;;;7.10;99.90;;;;;;5087361;28;20144;-59
2021/05/05 03:32:49;;;;;;;7.37;0.90;;;7.10;99.90;;;;;;5087015;28;20133;-59
2021/05/05 03:35:15;;;;;;;3.93;1.10;;;7.00;99.90;;;;;;5057128;28;20835;-60
2021/05/05 03:37:40;;;;;;;7.30;1.17;;;7.10;99.90;;;;;;5071195;28;20030;-59
2021/05/05 03:40:10;;;;;;;4.07;1.00;;;7.00;99.90;;;;;;5068872;28;20539;-59
2021/05/05 03:42:38;;;;;;;1.53;0.73;;;7.00;99.90;;;;;;5086458;28;20027;-60
2021/05/05 03:45:06;;;;;;;8.77;1.30;;;7.00;99.90;;;;;;5070876;28;20033;-59
2021/05/05 03:47:36;;;;;;;3.13;1.07;;;7.00;99.90;;;;;;5070986;28;20071;-59
2021/05/05 03:50:04;;;;;;;4.67;1.20;;;7.00;99.90;;;;;;5070656;28;20031;-59
2021/05/05 03:52:29;;;;;;;6.17;0.93;;;6.90;99.90;;;;;;5070965;28;20016;-59
2021/05/05 03:54:55;;;;;;;6.80;0.90;;;6.90;99.90;;;;;;5070741;28;20567;-59
2021/05/05 03:57:20;;;;;;;7.57;1.20;;;6.90;99.90;;;;;;5070464;28;20028;-59
2021/05/05 03:59:46;;;;;;;4.30;1.20;;;7.00;99.90;;;;;;5087286;28;20032;-59
2021/05/05 04:02:12;;;;;;;2.83;1.17;;;7.00;99.90;;;;;;5070955;28;20405;-59
2021/05/05 04:04:37;;;;;;;3.43;1.23;;;7.00;99.90;;;;;;5068073;28;20036;-59
2021/05/05 04:07:05;;;;;;;7.80;1.30;;;6.90;99.90;;;;;;5071394;28;20025;-59
2021/05/05 04:09:35;;;;;;;4.30;1.27;;;6.90;99.90;;;;;;5069212;28;20115;-59
2021/05/05 04:12:02;;;;;;;11.47;1.67;;;7.00;99.90;;;;;;5069787;28;20056;-59
2021/05/05 04:14:27;;;;;;;2.73;1.10;;;7.00;99.90;;;;;;5069255;28;20032;-59
2021/05/05 04:16:53;;;;;;;4.13;1.40;;;7.00;99.90;;;;;;5069420;28;20029;-59
2021/05/05 04:19:18;;;;;;;3.30;0.97;;;6.90;99.90;;;;;;5070527;28;20024;-59
2021/05/05 04:21:50;;;;;;;1.60;0.90;;;6.90;99.90;;;;;;5069945;28;20140;-59
2021/05/05 04:24:16;;;;;;;6.23;1.23;;;6.90;99.90;;;;;;5068245;28;20033;-59
2021/05/05 04:26:43;;;;;;;15.63;1.53;;;6.90;99.90;;;;;;5069388;28;20431;-60
2021/05/05 04:29:11;;;;;;;3.00;1.30;;;6.90;99.90;;;;;;5072365;28;20036;-60
2021/05/05 04:31:39;;;;;;;5.73;1.83;;;6.90;99.90;;;;;;5070072;28;20028;-60
2021/05/05 04:34:05;;;;;;;6.50;1.53;;;6.90;99.90;;;;;;5070103;28;20032;-61
2021/05/05 04:36:30;;;;;;;3.27;0.77;;;6.90;99.90;;;;;;5069048;28;20368;-60
2021/05/05 04:38:58;;;;;;;2.77;1.17;;;7.00;99.90;;;;;;5069642;28;20103;-60
2021/05/05 04:41:24;;;;;;;4.27;1.10;;;7.10;99.90;;;;;;5086260;28;20456;-59
2021/05/05 04:43:50;;;;;;;5.57;1.90;;;7.10;99.90;;;;;;5054899;28;20039;-61
2021/05/05 04:46:18;;;;;;;7.13;1.67;;;7.20;99.90;;;;;;5066838;28;20040;-58
2021/05/05 04:48:43;;;;;;;6.33;1.43;;;7.30;99.90;;;;;;5070755;28;20032;-60
2021/05/05 04:51:09;;;;;;;2.17;1.40;;;7.30;99.90;;;;;;5069232;28;20036;-60
2021/05/05 04:53:35;;;;;;;3.63;1.00;;;7.40;99.90;;;;;;5069325;28;20032;-60
2021/05/05 04:56:01;;;;;;;2.57;0.80;;;7.40;99.90;;;;;;5068081;28;20032;-60
2021/05/05 04:58:27;;;;;;;6.20;2.30;;;7.40;99.90;;;;;;5068486;28;20665;-60
2021/05/05 05:00:52;;;;;;;5.83;1.13;;;7.40;99.90;;;;;;5068901;28;20049;-58
2021/05/05 05:03:18;;;;;;;2.27;1.40;;;7.40;99.90;;;;;;5065918;28;20088;-58
2021/05/05 05:05:44;;;;;;;4.77;1.40;;;7.40;99.90;;;;;;5068284;28;20080;-58
2021/05/05 05:08:09;;;;;;;6.47;1.37;;;7.50;99.90;;;;;;5066511;28;20039;-59
2021/05/05 05:10:37;;;;;;;3.10;0.90;;;7.50;99.90;;;;;;5064531;28;20024;-59
2021/05/05 05:13:04;;;;;;;5.00;1.67;;;7.60;99.90;;;;;;5065563;28;20024;-59
2021/05/05 05:15:30;;;;;;;4.40;2.00;;;8.10;99.90;;;;;;5066962;28;20074;-58
2021/05/05 05:18:00;;;;;;;3.00;0.97;;;7.60;99.90;;;;;;5066474;28;20107;-59
2021/05/05 05:20:26;;;;;;;2.20;0.90;;;7.60;99.90;;;;;;5066078;28;20033;-59
2021/05/05 05:22:55;;;;;;;1.53;1.00;;;7.70;99.90;;;;;;5081125;28;20043;-58
2021/05/05 05:25:22;;;;;;;8.10;1.73;;;8.60;99.90;;;;;;5065795;28;20059;-59
2021/05/05 05:27:49;;;;;;;3.07;1.20;;;7.70;99.90;;;;;;5064293;28;20035;-59
2021/05/05 05:30:15;;;;;;;5.43;1.17;;;7.80;99.90;;;;;;5063736;28;20064;-59
2021/05/05 05:32:40;;;;;;;5.53;1.20;;;7.90;99.90;;;;;;5065943;28;20028;-59
2021/05/05 05:35:09;;;;;;;7.67;1.40;;;8.00;99.90;;;;;;5065939;28;20025;-59
2021/05/05 05:37:34;;;;;;;5.17;1.20;;;8.10;99.90;;;;;;5065376;28;20032;-59
2021/05/05 05:40:00;;;;;;;5.27;1.13;;;8.00;99.90;;;;;;5066013;28;20071;-59
2021/05/05 05:42:26;;;;;;;7.50;1.60;;;8.10;99.90;;;;;;5065634;28;20044;-59
2021/05/05 05:44:51;;;;;;;4.13;1.33;;;8.30;99.90;;;;;;5065372;28;20024;-59
2021/05/05 05:47:17;;;;;;;7.10;1.80;;;8.40;99.90;;;;;;5065589;28;20044;-59
2021/05/05 05:49:43;;;;;;;1.77;1.03;;;8.30;99.90;;;;;;5064847;28;20112;-59
2021/05/05 05:52:11;;;;;;;8.37;1.57;;;8.30;99.90;;;;;;5066123;28;20115;-59
2021/05/05 05:54:36;;;;;;;16.43;1.40;;;8.30;99.90;;;;;;5064003;28;20039;-59
2021/05/05 05:57:02;;;;;;;16.57;1.83;;;8.40;99.90;;;;;;5063785;28;20028;-59
2021/05/05 05:59:28;;;;;;;5.27;1.30;;;8.30;99.90;;;;;;5080888;28;20075;-59
2021/05/05 06:01:56;;;;;;;3.80;1.50;;;8.40;99.90;;;;;;5064258;28;20143;-59
2021/05/05 06:04:24;;;;;;;3.10;0.90;;;8.40;99.90;;;;;;5065578;28;20081;-59
2021/05/05 06:06:50;;;;;;;3.20;1.20;;;8.50;99.90;;;;;;5064447;28;20020;-59
2021/05/05 06:09:18;;;;;;;4.70;1.37;;;8.50;99.90;;;;;;5065989;28;20705;-59
2021/05/05 06:11:48;;;;;;;9.17;2.17;;;8.50;99.90;;;;;;5066820;28;20572;-60
2021/05/05 06:14:14;;;;;;;11.47;4.10;;;8.50;99.90;;;;;;5066151;28;20059;-60
2021/05/05 06:16:40;;;;;;;14.03;1.83;;;8.50;99.90;;;;;;5064574;28;20028;-59
2021/05/05 06:19:10;;;;;;;5.70;1.57;;;8.50;99.90;;;;;;5064553;28;20487;-59
2021/05/05 06:21:36;;;;;;;7.47;2.30;;;8.40;99.90;;;;;;5065248;28;20037;-59
2021/05/05 06:24:02;;;;;;;7.50;2.10;;;8.40;99.90;;;;;;5064452;28;20047;-59
2021/05/05 06:26:28;;;;;;;8.03;2.43;;;8.40;99.90;;;;;;5064415;28;20052;-59
2021/05/05 06:28:53;;;;;;;10.27;2.40;;;8.20;99.90;;;;;;5062678;28;20107;-59
2021/05/05 06:31:19;;;;;;;9.33;4.63;;;8.20;99.90;;;;;;5064893;28;20028;-59
2021/05/05 06:33:45;;;;;;;8.40;2.57;;;8.30;99.90;;;;;;5078974;28;20047;-59
2021/05/05 06:36:10;;;;;;;3.23;1.80;;;8.30;99.90;;;;;;5063879;28;20051;-58
2021/05/05 06:38:36;;;;;;;3.83;1.53;;;8.30;99.90;;;;;;5064194;28;20142;-59
2021/05/05 06:41:02;;;;;;;8.50;1.83;;;8.40;99.90;;;;;;5064272;28;20024;-59
2021/05/05 06:43:28;;;;;;;3.90;1.77;;;8.60;99.90;;;;;;5064019;28;20093;-59
2021/05/05 06:45:53;;;;;;;2.27;1.47;;;8.90;99.90;;;;;;5064611;28;20020;-61
2021/05/05 06:48:20;;;;;;;6.53;1.80;;;;;;;;;;5061950;28;20043;-61
2021/05/05 06:50:48;;;;;;;6.20;1.50;;;9.10;99.90;;;;;;5079283;28;20566;-59
2021/05/05 06:53:17;;;;;;;7.90;1.60;;;9.10;99.90;;;;;;5079063;28;20059;-59
2021/05/05 06:55:45;;;;;;;3.83;1.50;;;9.20;99.90;;;;;;5063464;28;20388;-59
2021/05/05 06:58:11;;;;;;;9.50;1.23;;;9.40;99.90;;;;;;5064049;28;20028;-59
2021/05/05 07:00:39;;;;;;;8.70;4.53;;;9.30;99.90;;;;;;5063128;28;20113;-58
2021/05/05 07:03:05;;;;;;;5.40;1.50;;;9.10;99.90;;;;;;5062786;28;20089;-58
2021/05/05 07:05:33;;;;;;;3.93;1.40;;;8.50;99.90;;;;;;5062613;28;20028;-58
2021/05/05 07:07:59;;;;;;;1.83;1.10;;;7.80;99.90;;;;;;5063360;28;20768;-57
2021/05/05 07:10:25;;;;;;;3.20;1.50;;;7.30;99.90;;;;;;5062649;28;20039;-57
2021/05/05 07:12:51;;;;;;;1.73;0.80;;;7.00;99.90;;;;;;5061864;28;20028;-56
2021/05/05 07:15:19;;;;;;;0.60;0.50;;;6.70;99.90;;;;;;5063486;28;20033;-58
2021/05/05 07:17:53;;;;;;;1.43;0.50;;;6.30;99.90;;;;;;5063645;28;20036;-58
2021/05/05 07:20:19;;;;;;;1.20;0.40;;;6.10;99.90;;;;;;5063123;28;20841;-58
2021/05/05 07:22:47;;;;;;;1.00;0.40;;;6.10;99.90;;;;;;5064065;28;20676;-57
2021/05/05 07:25:13;;;;;;;1.33;0.83;;;6.10;99.90;;;;;;5061505;28;20101;-57
2021/05/05 07:27:39;;;;;;;1.70;0.63;;;6.20;99.90;;;;;;5058868;28;20718;-57
2021/05/05 07:30:08;;;;;;;5.37;1.07;;;6.30;99.90;;;;;;5059901;28;20032;-57
2021/05/05 07:32:35;;;;;;;1.37;0.80;;;6.40;99.90;;;;;;5063289;28;20066;-57
2021/05/05 07:35:03;;;;;;;2.80;1.00;;;6.50;99.90;;;;;;5062334;28;20055;-57
2021/05/05 07:48:11;;;;;;;2.93;1.27;;;7.70;99.90;;;;;;5066837;28;20035;-58
2021/05/05 07:50:37;;;;;;;3.67;1.30;;;8.00;99.90;;;;;;5067523;28;20032;-57
2021/05/05 07:53:03;;;;;;;7.37;1.47;;;8.30;99.90;;;;;;5066073;28;20033;-57
2021/05/05 07:55:29;;;;;;;3.73;1.27;;;8.50;99.90;;;;;;5066184;28;20029;-57
2021/05/05 07:57:57;;;;;;;8.63;1.60;;;8.50;99.90;;;;;;5066202;28;21887;-57
2021/05/05 08:00:26;;;;;;;2.27;1.20;;;8.50;99.90;;;;;;5066432;28;20041;-56
2021/05/05 08:02:51;;;;;;;1.97;1.10;;;8.40;99.90;;;;;;5083182;28;20031;-56
2021/05/05 08:05:17;;;;;;;6.10;1.90;;;8.40;99.90;;;;;;5082040;28;20093;-56
2021/05/05 08:07:48;;;;;;;2.50;1.23;;;8.40;99.90;;;;;;5082945;28;20449;-57
2021/05/05 08:10:13;;;;;;;4.43;1.23;;;8.50;99.90;;;;;;5067196;28;20551;-56
2021/05/05 08:12:39;;;;;;;2.37;1.33;;;8.70;99.90;;;;;;5067849;28;20029;-56
2021/05/05 08:15:08;;;;;;;7.47;1.70;;;8.70;99.90;;;;;;5067487;28;20028;-56
2021/05/05 08:17:34;;;;;;;2.53;1.27;;;8.70;99.90;;;;;;5067152;28;20039;-56
2021/05/05 08:20:00;;;;;;;7.57;1.17;;;8.70;99.90;;;;;;5067563;28;20123;-56
2021/05/05 08:22:26;;;;;;;2.23;1.67;;;8.50;99.90;;;;;;5068213;28;20032;-56
2021/05/05 08:24:51;;;;;;;7.37;1.77;;;8.30;99.90;;;;;;5066212;28;20456;-56
2021/05/05 08:27:19;;;;;;;2.57;1.63;;;8.10;99.90;;;;;;5067102;28;20602;-57
2021/05/05 08:29:45;;;;;;;1.93;1.30;;;7.80;99.90;;;;;;5066950;28;20132;-56
2021/05/05 08:32:13;;;;;;;1.77;1.10;;;7.40;99.90;;;;;;5065429;28;20024;-57
2021/05/05 08:34:39;;;;;;;1.97;1.13;;;7.10;99.90;;;;;;5065130;28;20028;-57
2021/05/05 08:37:04;;;;;;;1.40;0.97;;;6.80;99.90;;;;;;5079780;28;20025;-57
2021/05/05 08:39:30;;;;;;;1.67;1.07;;;6.60;99.90;;;;;;5066390;28;20039;-56
2021/05/05 08:41:58;;;;;;;2.63;1.30;;;6.40;99.90;;;;;;5064088;28;20032;-57
2021/05/05 08:44:25;;;;;;;2.90;1.40;;;6.30;99.90;;;;;;5065798;28;20041;-56
2021/05/05 08:46:51;;;;;;;3.03;1.30;;;6.30;99.90;;;;;;5065806;28;20082;-57
2021/05/05 08:49:20;;;;;;;3.40;1.40;;;6.50;99.90;;;;;;5067075;28;20423;-56
2021/05/05 08:51:47;;;;;;;4.20;1.40;;;6.60;99.90;;;;;;5066356;28;20050;-56
2021/05/05 08:54:19;;;;;;;1.87;0.90;;;6.60;99.90;;;;;;5066677;28;20036;-56
2021/05/05 08:56:47;;;;;;;3.65;1.20;;;6.50;99.90;;;;;;5063895;28;20054;-57
2021/05/05 08:59:15;;;;;;;2.77;0.87;;;6.60;99.90;;;;;;5082004;28;20040;-57
2021/05/05 09:01:42;;;;;;;1.50;0.90;;;6.80;99.90;;;;;;5065781;28;20066;-57
2021/05/05 09:04:09;;;;;;;2.30;0.70;;;7.00;99.90;;;;;;5066735;28;20035;-57
2021/05/05 09:06:53;;;;;;;1.23;0.87;;;7.10;99.90;;;;;;5065151;28;20032;-57
2021/05/05 09:09:35;;;;;;;2.80;0.77;;;7.10;99.90;;;;;;5065799;28;20020;-56
2021/05/05 09:12:11;;;;;;;1.13;1.03;;;7.10;99.90;;;;;;5065394;28;20032;-57
2021/05/05 09:15:02;;;;;;;1.30;0.83;;;7.10;99.90;;;;;;5065169;28;20127;-56
2021/05/05 09:17:34;;;;;;;0.60;0.50;;;7.00;99.90;;;;;;5065960;28;20130;-56
2021/05/05 09:20:05;;;;;;;2.80;0.83;;;6.80;99.90;;;;;;5066092;28;20609;-56
2021/05/05 09:22:37;;;;;;;1.43;0.87;;;6.80;99.90;;;;;;5066528;28;20133;-57
2021/05/05 09:25:09;;;;;;;1.50;0.80;;;6.90;99.90;;;;;;5064330;28;20106;-56
2021/05/05 09:27:35;;;;;;;1.55;0.73;;;7.20;99.90;;;;;;5064503;28;20047;-56
2021/05/05 09:30:07;;;;;;;1.30;0.80;;;7.50;99.90;;;;;;5064085;28;20044;-57
2021/05/05 09:32:50;;;;;;;2.63;0.73;;;7.90;99.90;;;;;;5066311;28;20488;-56
2021/05/05 09:35:19;;;;;;;2.90;0.70;;;8.40;99.90;;;;;;5063834;28;20074;-57
2021/05/05 09:37:56;;;;;;;2.03;0.80;;;8.80;99.90;;;;;;5064996;28;20048;-57
2021/05/05 09:40:23;;;;;;;1.27;0.90;;;9.10;99.90;;;;;;5064768;28;20364;-58
2021/05/05 09:42:49;;;;;;;2.77;0.83;;;9.20;99.90;;;;;;5065703;28;20020;-57
2021/05/05 09:45:15;;;;;;;4.03;0.60;;;9.40;99.90;;;;;;5064051;28;20107;-57
2021/05/05 09:47:59;;;;;;;2.77;0.80;;;9.40;99.90;;;;;;5064545;28;20028;-56
2021/05/05 09:50:31;;;;;;;1.77;0.63;;;9.30;99.90;;;;;;5065418;28;20122;-56
2021/05/05 09:53:21;;;;;;;3.20;0.73;;;9.10;99.90;;;;;;5065347;28;20107;-57
2021/05/05 09:56:12;;;;;;;4.20;0.70;;;9.20;99.90;;;;;;5065077;28;20574;-57
2021/05/05 09:58:44;;;;;;;1.10;0.90;;;9.30;99.90;;;;;;5064205;28;21865;-57
2021/05/05 10:01:21;;;;;;;7.83;1.17;;;9.40;99.90;;;;;;5064468;28;20086;-57
2021/05/05 10:03:55;;;;;;;3.33;0.80;;;9.40;99.90;;;;;;5065931;28;20119;-56
2021/05/05 10:06:40;;;;;;;4.37;1.47;;;9.40;99.90;;;;;;5065206;28;20086;-57
2021/05/05 10:09:11;;;;;;;1.93;0.97;;;9.60;99.90;;;;;;5063666;28;20036;-56
2021/05/05 10:11:45;;;;;;;3.03;0.90;;;9.70;97.50;;;;;;5063346;28;20042;-56
2021/05/05 10:14:19;;;;;;;0.87;0.70;;;9.60;96.40;;;;;;5066041;28;20036;-57
2021/05/05 10:16:52;;;;;;;2.93;1.23;;;9.70;96.70;;;;;;5063676;28;20029;-57
2021/05/05 10:19:26;;;;;;;1.93;1.10;;;9.70;96.30;;;;;;5065363;28;20043;-57
2021/05/05 10:21:56;;;;;;;1.87;0.70;;;9.90;94.40;;;;;;5064603;28;20028;-57
2021/05/05 10:24:26;;;;;;;3.90;0.90;;;9.90;93.10;;;;;;5062973;28;20067;-57
2021/05/05 10:26:56;;;;;;;3.03;1.03;;;10.00;94.20;;;;;;5063640;28;20375;-57
2021/05/05 10:29:22;;;;;;;0.93;0.63;;;10.10;94.20;;;;;;5061816;28;20106;-57
2021/05/05 10:31:55;;;;;;;5.47;1.07;;;10.20;93.10;;;;;;5063191;28;20031;-57
2021/05/05 10:34:26;;;;;;;6.50;0.97;;;10.20;92.40;;;;;;5064119;28;20123;-57
2021/05/05 10:37:00;;;;;;;3.00;0.70;;;10.30;91.50;;;;;;5064475;28;20025;-58
2021/05/05 10:39:31;;;;;;;8.53;1.47;;;10.60;91.00;;;;;;5063940;28;20054;-57
2021/05/05 10:42:26;;;;;;;2.20;0.60;;;10.70;90.80;;;;;;5062156;28;20032;-58
2021/05/05 10:44:58;;;;;;;7.57;0.80;;;10.90;89.70;;;;;;5063526;28;20645;-57
2021/05/05 10:47:27;;;;;;;3.95;0.82;;;10.90;89.70;;;;;;5063493;28;20032;-58
2021/05/05 10:50:06;;;;;;;4.43;1.10;;;11.10;88.50;;;;;;5064409;28;20029;-58
2021/05/05 10:52:36;;;;;;;3.23;0.70;;;11.10;84.70;;;;;;5064633;28;20067;-58
2021/05/05 10:55:05;;;;;;;0.93;0.60;;;11.20;86.90;;;;;;5065488;28;20036;-57
2021/05/05 10:57:31;;;;;;;3.00;0.50;;;11.40;85.30;;;;;;5063743;28;20024;-58
2021/05/05 11:00:03;;;;;;;3.80;0.90;;;11.40;87.60;;;;;;5079949;28;20036;-58
2021/05/05 11:02:44;;;;;;;1.27;0.82;;;11.50;88.20;;;;;;5064183;28;20289;-57
2021/05/05 11:05:16;;;;;;;3.20;0.90;;;11.20;91.70;;;;;;5063805;28;20075;-58
2021/05/05 11:07:56;;;;;;;3.80;0.80;;;10.70;94.00;;;;;;5062967;28;20039;-58
2021/05/05 11:10:31;;;;;;;5.20;0.67;;;10.60;94.50;;;;;;5080046;28;20105;-58
2021/05/05 11:13:05;;;;;;;2.90;0.60;;;10.90;93.60;;;;;;5063579;28;20169;-59
2021/05/05 11:15:45;;;;;;;4.50;1.33;;;11.10;93.70;;;;;;5063909;28;20024;-58
2021/05/05 11:18:35;;;;;;;3.30;0.53;;;11.30;91.80;;;;;;5063601;28;20036;-58
2021/05/05 11:21:06;;;;;;;3.37;0.70;;;11.50;90.50;;;;;;5066252;28;20028;-58
2021/05/05 11:23:45;;;;;;;4.30;0.60;;;11.80;90.10;;;;;;5067689;28;20050;-58
2021/05/05 11:26:20;;;;;;;6.23;0.87;;;11.80;88.70;;;;;;5067844;28;20038;-58
2021/05/05 11:28:49;;;;;;;1.60;0.50;;;11.90;87.80;;;;;;5067886;28;20520;-58
2021/05/05 11:31:15;;;;;;;2.77;0.60;;;12.00;88.30;;;;;;5067771;28;20039;-58
2021/05/05 11:34:03;;;;;;;3.80;0.53;;;11.90;86.00;;;;;;5067679;28;20049;-59
2021/05/05 11:36:29;;;;;;;3.97;1.30;;;12.10;80.50;;;;;;5067028;28;20049;-59
2021/05/05 11:38:55;;;;;;;4.20;0.87;;;12.00;79.50;;;;;;5068259;28;20028;-59
2021/05/05 11:41:21;;;;;;;2.23;1.13;;;11.90;80.40;;;;;;5081772;28;20449;-59
2021/05/05 11:43:48;;;;;;;2.40;0.63;;;11.80;79.80;;;;;;5067313;28;20832;-59
2021/05/05 11:46:13;;;;;;;2.77;1.83;;;11.60;81.50;;;;;;5067712;28;20024;-59
2021/05/05 11:48:40;;;;;;;1.50;0.70;;;11.60;82.00;;;;;;5067981;28;20036;-59
2021/05/05 11:51:24;;;;;;;2.20;0.93;;;11.60;81.30;;;;;;5068206;28;22182;-58
2021/05/05 11:53:51;;;;;;;2.60;0.90;;;11.90;80.40;;;;;;5063393;28;20043;-58
2021/05/05 11:56:24;;;;;;;2.67;0.90;;;12.00;81.70;;;;;;5066980;28;20457;-59
2021/05/05 11:59:01;;;;;;;3.60;1.00;;;12.60;75.70;;;;;;5069997;28;20028;-58
2021/05/05 12:01:40;;;;;;;4.33;0.90;;;12.80;72.00;;;;;;5064629;28;20064;-59
2021/05/05 12:04:13;;;;;;;2.87;0.97;;;12.90;68.10;;;;;;5070050;28;20039;-58
2021/05/05 12:06:57;;;;;;;5.80;1.30;;;12.70;71.30;;;;;;5069156;28;20034;-58
2021/05/05 12:09:25;;;;;;;1.50;0.90;;;12.60;72.30;;;;;;5069345;28;20174;-59
2021/05/05 12:12:07;;;;;;;1.80;0.70;;;12.80;72.40;;;;;;5081895;28;20024;-59
2021/05/05 12:14:35;;;;;;;3.13;0.85;;;12.40;74.60;;;;;;5067812;28;20453;-58
2021/05/05 12:20:10;;;;;;;1.80;0.60;;;14.00;66.30;;;;;;5054350;28;20048;-60
2021/05/05 12:22:51;;;;;;;3.70;0.70;;;15.30;57.60;;;;;;5069606;28;20112;-59
2021/05/05 12:25:20;;;;;;;4.43;0.73;;;15.40;57.40;;;;;;5066851;28;20028;-59
2021/05/05 12:28:20;;;;;;;4.27;0.77;;;14.80;58.50;;;;;;5066516;28;20330;-60
2021/05/05 12:30:53;;;;;;;2.90;1.17;;;13.90;61.40;;;;;;5062429;28;20094;-58
2021/05/05 12:33:34;;;;;;;5.13;0.57;;;;;;;;;;5063795;28;20143;-59
2021/05/05 12:36:04;;;;;;;6.10;1.30;;;15.40;58.40;;;;;;5067118;28;20036;-59
2021/05/05 12:38:37;;;;;;;8.20;0.70;;;15.20;59.00;;;;;;5066144;28;20032;-59
2021/05/05 12:41:08;;;;;;;1.53;0.80;;;;;;;;;;5066799;28;20048;-59
2021/05/05 12:43:34;;;;;;;2.60;0.60;;;14.50;53.50;;;;;;5067012;28;20028;-59
2021/05/05 12:46:02;;;;;;;2.93;0.57;;;13.70;57.00;;;;;;5082020;28;20127;-59
2021/05/05 12:48:38;;;;;;;2.73;0.30;;;12.70;62.30;;;;;;5065174;28;20036;-58
2021/05/05 12:51:10;;;;;;;2.40;0.70;;;11.40;67.00;;;;;;5068635;28;20379;-58
2021/05/05 12:53:53;;;;;;;5.13;0.60;;;10.60;73.00;;;;;;5081003;28;20047;-58
2021/05/05 12:56:49;;;;;;;5.00;0.80;;;10.60;82.70;;;;;;5065623;28;20035;-59
2021/05/05 12:59:25;;;;;;;2.47;0.30;;;10.60;90.60;;;;;;5067216;28;20040;-58
2021/05/05 13:02:08;;;;;;;5.10;0.70;;;10.50;93.00;;;;;;5065594;28;20048;-57
2021/05/05 13:04:37;;;;;;;3.45;0.60;;;10.20;95.00;;;;;;5065606;28;20064;-59
2021/05/05 13:07:06;;;;;;;2.70;0.60;;;10.00;95.60;;;;;;5066507;28;20040;-59
2021/05/05 13:09:34;;;;;;;2.30;0.53;;;9.90;98.40;;;;;;5064922;28;20084;-59
2021/05/05 13:12:26;;;;;;;1.03;0.50;;;9.90;98.80;;;;;;5081118;28;20020;-58
2021/05/05 13:15:16;;;;;;;6.22;0.38;;;10.90;97.30;;;;;;5049729;28;20032;-59
2021/05/05 13:18:11;;;;;;;2.90;0.50;;;13.40;91.10;;;;;;5065011;28;20038;-59
2021/05/05 13:31:14;;;;;;;1.70;0.50;;;13.10;77.00;;;;;;5064584;28;20081;-58